createdAt,value
2023-05-05T00:01:08.715Z,10.80
2023-05-05T00:03:35.913Z,11.90
2023-05-05T00:06:03.084Z,11.02
2023-05-05T00:08:29.952Z,10.75
2023-05-05T00:10:57.446Z,11.15
2023-05-05T00:13:24.435Z,10.95
2023-05-05T00:15:52.466Z,11.40
2023-05-05T00:18:19.864Z,11.05
2023-05-05T00:20:47.328Z,11.30
2023-05-05T00:23:15.534Z,12.30
2023-05-05T00:25:41.992Z,12.70
2023-05-05T00:28:08.567Z,12.32
2023-05-05T00:30:37.298Z,12.30
2023-05-05T00:33:04.048Z,12.30
2023-05-05T00:35:30.604Z,13.05
2023-05-05T00:37:57.128Z,12.70
2023-05-05T00:40:25.023Z,12.60
2023-05-05T00:42:51.644Z,13.45
2023-05-05T00:45:19.924Z,12.80
2023-05-05T00:47:49.038Z,13.27
2023-05-05T00:50:26.927Z,14.05
2023-05-05T00:52:56.095Z,13.52
2023-05-05T00:55:22.689Z,12.95
2023-05-05T00:57:49.919Z,14.07
2023-05-05T01:00:16.869Z,13.50
2023-05-05T01:02:44.200Z,14.63
2023-05-05T01:05:13.206Z,13.45
2023-05-05T01:07:45.742Z,12.98
2023-05-05T01:10:20.364Z,12.20
2023-05-05T01:13:14.958Z,12.52
2023-05-05T01:15:51.850Z,11.73
2023-05-05T01:18:40.178Z,11.85
2023-05-05T01:21:43.122Z,12.85
2023-05-05T01:24:38.922Z,11.38
2023-05-05T01:27:20.384Z,11.63
2023-05-05T01:30:10.565Z,11.07
2023-05-05T01:32:45.835Z,10.65
2023-05-05T01:35:18.141Z,9.93
2023-05-05T01:37:52.128Z,8.90
2023-05-05T01:40:26.742Z,8.90
2023-05-05T01:42:55.501Z,8.80
2023-05-05T01:45:26.341Z,8.50
2023-05-05T01:47:55.795Z,7.97
2023-05-05T01:50:24.580Z,7.28
2023-05-05T01:52:52.635Z,7.65
2023-05-05T01:55:21.555Z,7.22
2023-05-05T01:57:49.934Z,7.13
2023-05-05T02:00:19.410Z,7.38
2023-05-05T02:02:49.171Z,7.15
2023-05-05T02:05:19.196Z,7.28
2023-05-05T02:07:46.240Z,6.63
2023-05-05T02:10:13.688Z,6.78
2023-05-05T02:12:42.682Z,6.72
2023-05-05T02:15:10.374Z,7.10
2023-05-05T02:17:40.622Z,6.32
2023-05-05T02:20:09.361Z,6.40
2023-05-05T02:22:36.079Z,6.50
2023-05-05T02:25:03.334Z,6.60
2023-05-05T02:27:32.573Z,6.30
2023-05-05T02:30:07.086Z,6.20
2023-05-05T02:32:39.449Z,6.50
2023-05-05T02:35:36.427Z,5.90
2023-05-05T02:38:06.090Z,6.05
2023-05-05T02:40:40.682Z,5.80
2023-05-05T02:43:10.865Z,5.70
2023-05-05T02:45:38.324Z,6.00
2023-05-05T02:48:05.977Z,5.60
2023-05-05T02:50:36.991Z,5.40
2023-05-05T02:53:25.180Z,5.63
2023-05-05T02:55:54.396Z,5.38
2023-05-05T02:58:34.589Z,5.45
2023-05-05T03:01:25.407Z,5.50
2023-05-05T03:04:03.722Z,5.30
2023-05-05T03:06:39.346Z,5.25
2023-05-05T03:09:27.649Z,5.20
2023-05-05T03:12:10.123Z,4.95
2023-05-05T03:14:55.356Z,5.22
2023-05-05T03:17:24.841Z,5.60
2023-05-05T03:19:52.160Z,5.60
2023-05-05T03:22:19.596Z,5.60
2023-05-05T03:24:51.390Z,5.63
2023-05-05T03:27:21.699Z,5.40
2023-05-05T03:29:48.212Z,5.50
2023-05-05T03:32:15.841Z,5.45
2023-05-05T03:34:43.384Z,6.07
2023-05-05T03:37:09.888Z,5.70
2023-05-05T03:39:38.261Z,5.82
2023-05-05T03:42:05.878Z,5.63
2023-05-05T03:44:35.261Z,6.28
2023-05-05T03:47:01.815Z,6.45
2023-05-05T03:49:30.449Z,6.57
2023-05-05T03:51:57.594Z,6.85
2023-05-05T03:54:24.214Z,7.15
2023-05-05T03:56:51.489Z,7.35
2023-05-05T03:59:18.069Z,7.68
2023-05-05T04:01:46.560Z,8.30
2023-05-05T04:04:13.331Z,8.18
2023-05-05T04:06:40.718Z,8.02
2023-05-05T04:09:07.811Z,8.73
2023-05-05T04:11:35.392Z,8.98
2023-05-05T04:14:01.978Z,9.10
2023-05-05T04:16:30.990Z,10.07
2023-05-05T04:18:58.622Z,10.45
2023-05-05T04:21:25.286Z,10.40
2023-05-05T04:23:52.328Z,11.00
2023-05-05T04:26:20.826Z,10.43
2023-05-05T04:28:47.395Z,10.52
2023-05-05T04:31:15.718Z,10.98
2023-05-05T04:33:43.743Z,10.80
2023-05-05T04:36:11.037Z,10.88
2023-05-05T04:38:37.755Z,11.63
2023-05-05T04:41:06.447Z,11.32
2023-05-05T04:43:33.984Z,11.90
2023-05-05T04:46:00.866Z,11.68
2023-05-05T04:48:30.874Z,11.55
2023-05-05T04:50:57.402Z,12.60
2023-05-05T04:53:23.934Z,11.98
2023-05-05T04:55:50.628Z,11.90
2023-05-05T04:58:17.841Z,11.90
2023-05-05T05:00:45.240Z,12.23
2023-05-05T05:03:12.105Z,12.50
2023-05-05T05:05:38.690Z,13.13
2023-05-05T05:08:05.577Z,12.88
2023-05-05T05:10:32.140Z,12.43
2023-05-05T05:12:58.761Z,12.38
2023-05-05T05:15:25.650Z,12.57
2023-05-05T05:17:52.261Z,12.30
2023-05-05T05:20:19.012Z,12.95
2023-05-05T05:22:46.373Z,12.98
2023-05-05T05:25:16.989Z,12.70
2023-05-05T05:27:44.144Z,12.50
2023-05-05T05:30:11.749Z,12.57
2023-05-05T05:32:38.550Z,13.30
2023-05-05T05:35:06.027Z,12.90
2023-05-05T05:37:37.044Z,12.75
2023-05-05T05:40:07.548Z,13.52
2023-05-05T05:42:35.286Z,13.63
2023-05-05T05:45:03.273Z,14.25
2023-05-05T05:47:30.433Z,13.45
2023-05-05T05:49:57.874Z,13.68
2023-05-05T05:52:24.508Z,13.60
2023-05-05T05:54:51.389Z,14.13
2023-05-05T05:57:18.867Z,14.52
2023-05-05T05:59:45.751Z,14.48
2023-05-05T06:02:12.427Z,13.52
2023-05-05T06:04:39.262Z,14.30
2023-05-05T06:07:06.235Z,13.80
2023-05-05T06:09:32.764Z,14.35
2023-05-05T06:11:59.615Z,14.43
2023-05-05T06:14:26.477Z,14.00
2023-05-05T06:16:53.688Z,15.43
2023-05-05T06:19:22.185Z,14.82
2023-05-05T06:21:48.934Z,15.45
2023-05-05T06:24:15.436Z,15.70
2023-05-05T06:26:42.092Z,15.43
2023-05-05T06:29:10.464Z,15.77
2023-05-05T06:31:38.415Z,15.57
2023-05-05T06:34:04.967Z,15.02
2023-05-05T06:36:32.305Z,15.02
2023-05-05T06:38:58.910Z,14.07
2023-05-05T06:41:25.472Z,14.18
2023-05-05T06:43:51.986Z,14.02
2023-05-05T06:46:18.625Z,14.00
2023-05-05T06:48:45.550Z,13.80
2023-05-05T06:51:12.131Z,13.45
2023-05-05T06:53:38.629Z,12.60
2023-05-05T06:56:05.392Z,13.50
2023-05-05T06:58:32.052Z,12.75
2023-05-05T07:00:58.613Z,13.10
2023-05-05T07:03:25.402Z,13.38
2023-05-05T07:05:53.847Z,13.35
2023-05-05T07:08:20.369Z,13.50
2023-05-05T07:10:47.213Z,12.43
2023-05-05T07:13:16.231Z,12.65
2023-05-05T07:15:49.132Z,12.98
2023-05-05T07:18:16.884Z,12.65
2023-05-05T07:20:46.705Z,13.50
2023-05-05T07:23:13.282Z,13.02
2023-05-05T07:25:39.829Z,12.95
2023-05-05T07:28:06.484Z,12.80
2023-05-05T07:30:33.023Z,12.35
2023-05-05T07:32:59.793Z,12.52
2023-05-05T07:35:26.450Z,11.80
2023-05-05T07:37:52.988Z,11.25
2023-05-05T07:40:19.718Z,11.20
2023-05-05T07:42:47.407Z,11.15
2023-05-05T07:45:13.924Z,11.32
2023-05-05T07:47:40.761Z,11.40
2023-05-05T07:50:08.376Z,11.23
2023-05-05T07:52:46.661Z,10.60
2023-05-05T07:55:18.174Z,9.52
2023-05-05T07:57:44.796Z,9.82
2023-05-05T08:00:13.270Z,9.55
2023-05-05T08:02:40.204Z,9.80
2023-05-05T08:05:07.573Z,9.50
2023-05-05T08:07:36.434Z,9.77
2023-05-05T08:10:03.066Z,9.73
2023-05-05T08:12:29.659Z,9.43
2023-05-05T08:14:56.172Z,9.20
2023-05-05T08:17:25.733Z,9.00
2023-05-05T08:19:52.965Z,8.70
2023-05-05T08:22:21.298Z,8.80
2023-05-05T08:24:47.868Z,10.15
2023-05-05T08:27:14.684Z,10.15
2023-05-05T08:29:41.201Z,9.38
2023-05-05T08:32:07.763Z,8.60
2023-05-05T08:34:34.311Z,9.73
2023-05-05T08:37:00.872Z,9.02
2023-05-05T08:39:27.447Z,9.48
2023-05-05T08:41:53.964Z,9.13
2023-05-05T08:44:20.599Z,9.05
2023-05-05T08:46:48.587Z,8.05
2023-05-05T08:49:17.434Z,7.43
2023-05-05T08:51:46.018Z,8.00
2023-05-05T08:54:19.818Z,7.63
2023-05-05T08:56:49.603Z,8.00
2023-05-05T08:59:17.293Z,7.97
2023-05-05T09:01:44.705Z,7.90
2023-05-05T09:04:11.311Z,7.65
2023-05-05T09:06:37.931Z,7.38
2023-05-05T09:09:04.523Z,7.50
2023-05-05T09:11:33.887Z,7.30
2023-05-05T09:14:01.730Z,7.60
2023-05-05T09:16:28.240Z,7.00
2023-05-05T09:19:02.472Z,6.47
2023-05-05T09:21:29.414Z,7.60
2023-05-05T09:24:12.699Z,8.18
2023-05-05T09:26:47.728Z,7.07
2023-05-05T09:29:21.452Z,7.45
2023-05-05T09:32:05.503Z,7.63
2023-05-05T09:34:34.941Z,6.80
2023-05-05T09:37:01.649Z,6.70
2023-05-05T09:39:28.316Z,6.00
2023-05-05T09:41:54.948Z,5.32
2023-05-05T09:44:35.252Z,4.93
2023-05-05T09:47:03.772Z,4.47
2023-05-05T09:49:31.861Z,4.13
2023-05-05T09:51:58.465Z,4.03
2023-05-05T09:54:29.762Z,4.05
2023-05-05T09:56:57.268Z,4.00
2023-05-05T09:59:24.389Z,3.95
2023-05-05T10:01:51.622Z,4.10
2023-05-05T10:04:29.573Z,4.38
2023-05-05T10:06:58.051Z,4.30
2023-05-05T10:09:25.950Z,4.30
2023-05-05T10:11:53.862Z,4.22
2023-05-05T10:14:20.790Z,4.20
2023-05-05T10:16:50.534Z,4.88
2023-05-05T10:19:19.550Z,5.40
2023-05-05T10:21:51.178Z,5.15
2023-05-05T10:26:50.428Z,5.45
2023-05-05T10:29:40.024Z,6.57
2023-05-05T10:32:53.564Z,6.82
2023-05-05T10:35:23.020Z,7.00
2023-05-05T10:37:49.960Z,7.07
2023-05-05T10:40:17.832Z,7.38
2023-05-05T10:42:45.438Z,7.60
2023-05-05T10:45:12.306Z,7.50
2023-05-05T10:47:40.297Z,7.80
2023-05-05T10:50:25.993Z,7.85
2023-05-05T10:53:07.615Z,8.13
2023-05-05T10:55:46.310Z,8.73
2023-05-05T10:58:55.530Z,8.98
2023-05-05T11:01:29.771Z,8.98
2023-05-05T11:04:19.240Z,8.48
2023-05-05T11:07:14.736Z,7.55
2023-05-05T11:09:56.025Z,7.13
2023-05-05T11:12:22.731Z,6.00
2023-05-05T11:15:27.505Z,5.20
2023-05-05T11:17:57.699Z,5.00
2023-05-05T11:20:36.862Z,4.55
2023-05-05T11:23:03.424Z,4.70
2023-05-05T11:25:42.036Z,4.90
2023-05-05T11:28:16.960Z,4.70
2023-05-05T11:30:59.230Z,4.72
2023-05-05T11:33:35.950Z,4.72
2023-05-05T11:36:06.777Z,5.00
2023-05-05T11:38:36.277Z,4.97
2023-05-05T11:41:17.274Z,4.90
2023-05-05T11:43:43.862Z,4.55
2023-05-05T11:46:15.469Z,4.95
2023-05-05T11:51:16.836Z,5.07
2023-05-05T11:53:48.337Z,4.80
2023-05-05T11:56:24.866Z,4.68
2023-05-05T11:59:10.585Z,4.50
2023-05-05T12:01:41.359Z,4.38
2023-05-05T12:04:15.287Z,4.17
2023-05-05T12:06:42.618Z,4.40
2023-05-05T12:09:20.995Z,4.18
2023-05-05T12:11:50.464Z,4.60
2023-05-05T12:14:16.947Z,4.70
2023-05-05T12:17:02.543Z,4.60
2023-05-05T12:19:32.982Z,4.40
2023-05-05T12:22:04.252Z,5.00
2023-05-05T12:24:30.866Z,5.00
2023-05-05T12:27:10.713Z,5.10
2023-05-05T12:29:37.719Z,4.78
2023-05-05T12:32:04.482Z,4.97
2023-05-05T12:34:32.119Z,4.80
2023-05-05T12:36:58.878Z,4.60
2023-05-05T12:39:35.417Z,4.57
2023-05-05T12:42:03.582Z,4.38
2023-05-05T12:44:39.813Z,4.50
2023-05-05T12:47:07.228Z,4.60
2023-05-05T12:49:51.245Z,4.65
2023-05-05T12:52:18.365Z,4.90
2023-05-05T12:54:58.810Z,4.70
2023-05-05T12:57:26.089Z,4.70
2023-05-05T12:59:53.337Z,4.40
2023-05-05T13:02:20.717Z,4.45
2023-05-05T13:04:52.355Z,4.68
2023-05-05T13:07:20.987Z,4.50
2023-05-05T13:09:49.228Z,4.40
2023-05-05T13:12:17.828Z,4.10
2023-05-05T13:14:44.949Z,4.18
2023-05-05T13:17:11.729Z,4.40
2023-05-05T13:19:42.453Z,4.10
2023-05-05T13:22:13.150Z,4.60
2023-05-05T13:24:50.728Z,5.32
2023-05-05T13:27:18.839Z,5.18
2023-05-05T13:29:45.374Z,5.20
2023-05-05T13:32:11.944Z,5.25
2023-05-05T13:34:39.263Z,5.45
2023-05-05T13:37:06.156Z,5.38
2023-05-05T13:39:32.683Z,5.50
2023-05-05T13:41:59.286Z,5.60
2023-05-05T13:44:25.899Z,5.65
2023-05-05T13:46:52.552Z,5.88
2023-05-05T13:49:20.038Z,5.60
2023-05-05T13:51:47.036Z,6.07
2023-05-05T13:54:13.830Z,5.93
2023-05-05T13:56:40.568Z,5.80
2023-05-05T13:59:07.184Z,5.63
2023-05-05T14:01:33.831Z,5.68
2023-05-05T14:04:02.806Z,5.50
2023-05-05T14:06:31.251Z,5.17
2023-05-05T14:08:57.854Z,4.90
2023-05-05T14:11:24.405Z,5.40
2023-05-05T14:13:52.004Z,4.72
2023-05-05T14:16:18.858Z,4.50
2023-05-05T14:18:45.616Z,4.50
2023-05-05T14:21:12.273Z,4.30
2023-05-05T14:23:38.852Z,4.13
2023-05-05T14:26:05.449Z,3.88
2023-05-05T14:28:31.967Z,4.22
2023-05-05T14:30:58.489Z,4.30
2023-05-05T14:33:25.488Z,4.35
2023-05-05T14:35:52.115Z,4.18
2023-05-05T14:38:18.641Z,4.15
2023-05-05T14:40:45.314Z,4.40
2023-05-05T14:43:11.888Z,3.90
2023-05-05T14:45:38.437Z,3.90
2023-05-05T14:48:05.071Z,3.72
2023-05-05T14:50:31.647Z,3.78
2023-05-05T14:52:58.220Z,3.47
2023-05-05T14:55:25.026Z,3.50
2023-05-05T14:57:51.899Z,3.78
2023-05-05T15:00:18.615Z,3.90
2023-05-05T15:02:45.490Z,3.85
2023-05-05T15:05:12.345Z,4.00
2023-05-05T15:07:40.130Z,3.90
2023-05-05T15:10:07.593Z,3.70
2023-05-05T15:12:34.351Z,3.63
2023-05-05T15:15:00.978Z,3.60
2023-05-05T15:17:27.637Z,3.80
2023-05-05T15:19:54.259Z,3.63
2023-05-05T15:22:20.780Z,3.38
2023-05-05T15:24:47.301Z,3.38
2023-05-05T15:27:14.123Z,3.83
2023-05-05T15:29:40.653Z,3.90
2023-05-05T15:32:07.401Z,3.75
2023-05-05T15:34:34.077Z,3.97
2023-05-05T15:37:00.613Z,4.05
2023-05-05T15:39:27.100Z,4.07
2023-05-05T15:41:53.676Z,4.25
2023-05-05T15:44:20.143Z,4.10
2023-05-05T15:49:13.322Z,4.40
2023-05-05T15:51:39.874Z,4.32
2023-05-05T15:54:06.553Z,4.40
2023-05-05T15:56:33.690Z,4.30
2023-05-05T15:59:00.324Z,4.13
2023-05-05T16:01:26.930Z,4.07
2023-05-05T16:03:53.467Z,4.30
2023-05-05T16:06:19.979Z,4.43
2023-05-05T16:08:47.717Z,4.60
2023-05-05T16:11:14.409Z,4.70
2023-05-05T16:13:42.391Z,4.40
2023-05-05T16:16:08.964Z,4.70
2023-05-05T16:18:35.501Z,4.40
2023-05-05T16:21:02.620Z,4.50
2023-05-05T16:23:29.104Z,4.50
2023-05-05T16:25:55.637Z,4.80
2023-05-05T16:28:22.301Z,4.50
2023-05-05T16:30:48.820Z,4.70
2023-05-05T16:33:15.450Z,7.90
2023-05-05T16:35:45.721Z,7.28
2023-05-05T16:38:13.117Z,7.32
2023-05-05T16:40:40.139Z,6.30
2023-05-05T16:43:06.636Z,4.93
2023-05-05T16:45:33.216Z,4.43
2023-05-05T16:47:59.834Z,4.35
2023-05-05T16:50:26.646Z,4.60
2023-05-05T16:52:53.126Z,4.82
2023-05-05T16:55:19.758Z,5.60
2023-05-05T16:57:47.203Z,5.10
2023-05-05T17:00:14.472Z,4.85
2023-05-05T17:02:41.124Z,5.03
2023-05-05T17:05:08.285Z,4.28
2023-05-05T17:07:35.036Z,4.50
2023-05-05T17:10:01.693Z,4.63
2023-05-05T17:12:28.331Z,4.82
2023-05-05T17:14:54.906Z,6.20
2023-05-05T17:17:21.410Z,5.88
2023-05-05T17:19:47.907Z,5.40
2023-05-05T17:22:14.390Z,5.47
2023-05-05T17:24:40.984Z,5.90
2023-05-05T17:27:07.575Z,5.90
2023-05-05T17:29:39.320Z,5.85
2023-05-05T17:32:06.049Z,6.70
2023-05-05T17:34:32.679Z,7.70
2023-05-05T17:36:59.217Z,8.02
2023-05-05T17:39:25.821Z,7.63
2023-05-05T17:41:52.352Z,7.10
2023-05-05T17:44:18.809Z,6.88
2023-05-05T17:46:45.561Z,7.30
2023-05-05T17:49:12.268Z,8.23
2023-05-05T17:51:38.878Z,8.27
2023-05-05T17:54:05.595Z,7.55
2023-05-05T17:56:32.063Z,7.47
2023-05-05T17:58:58.546Z,7.43
2023-05-05T18:01:26.691Z,7.72
2023-05-05T18:03:53.342Z,7.80
2023-05-05T18:06:19.932Z,7.78
2023-05-05T18:08:46.613Z,7.63
2023-05-05T18:11:13.190Z,8.50
2023-05-05T18:13:39.819Z,9.15
2023-05-05T18:16:06.739Z,9.00
2023-05-05T18:18:33.380Z,8.40
2023-05-05T18:21:00.041Z,8.13
2023-05-05T18:23:26.633Z,7.88
2023-05-05T18:25:53.167Z,8.35
2023-05-05T18:28:20.306Z,8.02
2023-05-05T18:30:46.824Z,7.97
2023-05-05T18:33:13.369Z,8.48
2023-05-05T18:35:39.947Z,7.97
2023-05-05T18:38:06.465Z,8.20
2023-05-05T18:40:32.968Z,8.90
2023-05-05T18:43:00.601Z,8.20
2023-05-05T18:45:27.211Z,8.05
2023-05-05T18:47:53.854Z,8.60
2023-05-05T18:50:20.349Z,8.48
2023-05-05T18:52:46.905Z,8.60
2023-05-05T18:55:13.612Z,8.05
2023-05-05T18:57:40.375Z,8.13
2023-05-05T19:00:07.435Z,8.40
2023-05-05T19:02:33.969Z,8.90
2023-05-05T19:05:00.651Z,8.25
2023-05-05T19:07:34.936Z,8.20
2023-05-05T19:10:04.142Z,7.68
2023-05-05T19:12:30.634Z,7.45
2023-05-05T19:14:57.120Z,7.50
2023-05-05T19:17:23.723Z,7.47
2023-05-05T19:19:50.606Z,7.55
2023-05-05T19:22:22.876Z,7.03
2023-05-05T19:24:49.376Z,7.13
2023-05-05T19:27:17.105Z,7.18
2023-05-05T19:29:44.064Z,7.57
2023-05-05T19:32:10.886Z,7.45
2023-05-05T19:34:37.549Z,7.40
2023-05-05T19:37:04.106Z,7.28
2023-05-05T19:39:31.210Z,7.20
2023-05-05T19:41:57.725Z,7.40
2023-05-05T19:44:24.289Z,7.40
2023-05-05T19:46:52.518Z,7.97
2023-05-05T19:49:19.124Z,10.00
2023-05-05T19:51:47.570Z,9.95
2023-05-05T19:54:14.147Z,10.02
2023-05-05T19:56:40.757Z,9.00
2023-05-05T19:59:07.394Z,8.05
2023-05-05T20:01:35.057Z,8.05
2023-05-05T20:04:03.151Z,7.50
2023-05-05T20:06:29.657Z,7.30
2023-05-05T20:08:56.186Z,7.72
2023-05-05T20:11:22.950Z,7.75
2023-05-05T20:13:49.808Z,7.53
2023-05-05T20:16:16.532Z,7.70
2023-05-05T20:18:43.558Z,7.53
2023-05-05T20:21:10.208Z,7.47
2023-05-05T20:23:37.096Z,7.82
2023-05-05T20:26:03.685Z,7.20
2023-05-05T20:28:31.707Z,7.65
2023-05-05T20:30:58.421Z,7.80
2023-05-05T20:33:24.961Z,7.55
2023-05-05T20:35:51.474Z,7.25
2023-05-05T20:38:18.010Z,7.50
2023-05-05T20:40:44.542Z,7.80
2023-05-05T20:43:11.117Z,7.15
2023-05-05T20:45:37.753Z,7.60
2023-05-05T20:48:05.458Z,7.72
2023-05-05T20:50:32.164Z,7.40
2023-05-05T20:52:58.843Z,7.80
2023-05-05T20:55:25.534Z,7.60
2023-05-05T20:57:52.058Z,7.68
2023-05-05T21:00:18.595Z,7.80
2023-05-05T21:02:45.289Z,7.50
2023-05-05T21:05:12.509Z,7.75
2023-05-05T21:07:39.067Z,7.75
2023-05-05T21:10:06.199Z,8.13
2023-05-05T21:12:34.019Z,7.55
2023-05-05T21:15:00.696Z,7.80
2023-05-05T21:17:27.677Z,7.90
2023-05-05T21:19:55.061Z,7.45
2023-05-05T21:22:21.855Z,7.95
2023-05-05T21:24:48.488Z,7.32
2023-05-05T21:27:15.105Z,7.30
2023-05-05T21:29:41.637Z,7.55
2023-05-05T21:32:10.287Z,7.90
2023-05-05T21:34:37.496Z,7.90
2023-05-05T21:37:04.925Z,7.63
2023-05-05T21:39:32.974Z,7.82
2023-05-05T21:42:00.567Z,8.27
2023-05-05T21:44:28.065Z,8.30
2023-05-05T21:46:55.026Z,7.90
2023-05-05T21:49:21.648Z,8.50
2023-05-05T21:51:48.138Z,8.50
2023-05-05T21:54:14.661Z,8.63
2023-05-05T21:56:41.177Z,8.25
2023-05-05T21:59:07.676Z,8.32
2023-05-05T22:01:34.856Z,8.68
2023-05-05T22:04:01.591Z,8.55
2023-05-05T22:06:28.169Z,8.68
2023-05-05T22:08:54.749Z,9.50
2023-05-05T22:11:21.320Z,9.10
2023-05-05T22:13:47.917Z,9.45
2023-05-05T22:16:17.413Z,8.70
2023-05-05T22:18:44.341Z,9.25
2023-05-05T22:21:10.962Z,9.10
2023-05-05T22:23:38.880Z,9.45
2023-05-05T22:26:05.369Z,9.35
2023-05-05T22:28:31.882Z,9.70
2023-05-05T22:30:58.375Z,9.65
2023-05-05T22:33:24.996Z,9.75
2023-05-05T22:35:52.013Z,9.90
2023-05-05T22:38:18.638Z,9.98
2023-05-05T22:40:45.799Z,9.90
2023-05-05T22:43:12.338Z,9.77
2023-05-05T22:45:39.030Z,9.85
2023-05-05T22:48:05.904Z,9.75
2023-05-05T22:50:32.528Z,10.15
2023-05-05T22:52:59.063Z,10.50
2023-05-05T22:55:26.686Z,10.88
2023-05-05T22:57:53.253Z,10.25
2023-05-05T23:00:19.786Z,9.82
2023-05-05T23:02:46.330Z,10.32
2023-05-05T23:05:13.050Z,10.77
2023-05-05T23:07:39.667Z,10.02
2023-05-05T23:10:06.659Z,10.40
2023-05-05T23:12:33.251Z,10.70
2023-05-05T23:14:59.800Z,10.32
2023-05-05T23:17:26.336Z,10.00
2023-05-05T23:19:53.062Z,10.48
2023-05-05T23:22:19.557Z,10.27
2023-05-05T23:24:46.107Z,11.05
2023-05-05T23:27:13.187Z,11.02
2023-05-05T23:29:39.789Z,10.98
2023-05-05T23:32:06.407Z,10.82
2023-05-05T23:34:33.071Z,11.38
2023-05-05T23:36:59.589Z,11.50
2023-05-05T23:39:26.131Z,11.27
2023-05-05T23:41:52.648Z,11.65
2023-05-05T23:44:19.129Z,11.35
2023-05-05T23:46:45.791Z,11.90
2023-05-05T23:49:12.315Z,12.27
2023-05-05T23:51:38.850Z,11.75
2023-05-05T23:54:05.421Z,11.80
2023-05-05T23:56:31.992Z,11.18
2023-05-05T23:58:58.477Z,11.63
